Portada
METAR-TAF:

METAR-TAF

Aeropuertos :

Sun City, Sudáfrica

latitud: 25-20-01S, longitud: 027-10-24E, altitud: 1040 m

Observación

El informe se hizo hace 59 minutos, a las 06:00 UTC
Viento calma
Temperatura 17°C
Humedad 72%
Presión 1026 hPa

METAR: FAPN 160600Z AUTO 00000KT //// // ////// 17/12 Q1026

Hora: 08:59 (06:59 UTC)


TAF: falta

Observaciones y pronósticos meteorológicos de más de 4000 aeropuertos (mensajes METAR y TAF).

Los puntos amarillos y rojos representan las estaciones disponibles.

Ponga el ratón en el punto deseado para ver el nombre de la estación.

Haga clic para ver las observaciones y los pronósticos meteorológicos.

Para cambiar el mapa : haga clic en los botones verdes con una cruz de color negro para hacer un zoom, en el botón verde con un guión para alejar o en las flechas verdes para mapas adyacentes.


METAR-TAF: